Hackettstown, NJ

2:33 AM EDT on May 24, 2017 (GMT -0400)
Snow Dog Lucy's Yard | | Change Station

Elev 988 ft 40.87 °N, 74.84 °W | Updated 1 second ago

Mostly Cloudy
Mostly Cloudy
56.7 °F
Feels Like 56.7 °F
N
0.0
Wind Variable Wind from SW
Gusts 0.0 mph

Today
High -- | Low -- °F
--% Chance of Precip.
Yesterday
High -- | Low -- °F
Precip. -- in
Pressure 29.73 in
Visibility 9.0 miles
Clouds Overcast 11000 ft
Dew Point 34 °F
Humidity 42%
Rainfall 0.00 in
Snow Depth Not available.
5:34 AM 8:18 PM
Waning Crescent, 4% visible
METAR KSMQ 240553Z AUTO 00000KT 9SM OVC110 14/13 A2973 RMK AO2 SLP068 T01390133 10167 20139 56021
Pressure 29.73 in
Visibility 9.0 miles
Clouds Overcast 11000 ft
Dew Point 34 °F
Humidity 42%
Rainfall 0.00 in
Snow Depth Not available.
5:34 AM 8:18 PM
Waning Crescent, 4% visible
METAR KSMQ 240553Z AUTO 00000KT 9SM OVC110 14/13 A2973 RMK AO2 SLP068 T01390133 10167 20139 56021

Get Severe Weather Alerts

Thanks for signing up!

Be on the lookout for a verification email in your inbox.

You'll start receiving the daily forecast at 6 AM.

×

10-Day Weather Forecast

Almanac

Astronomy

May. 24, 2017 Rise Set
Actual Time
Civil Twilight
Nautical Twilight
Astronomical Twilight
Moon
Length of Visible Light
Length of Day
Tomorrow will be .
, % of the Moon is Illuminated

Today's Extremes

State Highs State Lows

Community

WunderPhotos

Category 6

Welcome to Category 6. This is the collective home for Weather Underground's featured writeups by Dr. Jeff Masters (right), Bob Henson (left), Chris Burt, and other regular contributors.

Nearby

Air Quality

  Air Quality AQ Index Pollutant
Not available.

Snow Depth

Station Depth Elevation

Earthquake Activity

City Distance Mag. Time & Date
Minimum magnitude displayed is 2.5.

Coastal Water Temperatures

Place Temperature

Stations

Nearby Weather Stations

Station Location Temp. Windchill Dew Point Humidity Wind Precip. Elev Updated Type
                   

Watches & Warnings

There are currently no watches in effect.